sensor_id;sensor_type;location;lat;lon;timestamp;temperature;humidity
34891;DHT22;21103;51.358;12.412;2022-08-11T00:00:19;19.50;74.70
34891;DHT22;21103;51.358;12.412;2022-08-11T00:02:49;19.40;74.60
34891;DHT22;21103;51.358;12.412;2022-08-11T00:05:17;19.30;74.70
34891;DHT22;21103;51.358;12.412;2022-08-11T00:07:50;19.30;75.30
34891;DHT22;21103;51.358;12.412;2022-08-11T00:10:19;19.30;75.50
34891;DHT22;21103;51.358;12.412;2022-08-11T00:12:52;19.30;75.20
34891;DHT22;21103;51.358;12.412;2022-08-11T00:15:18;19.30;76.10
34891;DHT22;21103;51.358;12.412;2022-08-11T00:17:45;19.30;76.20
34891;DHT22;21103;51.358;12.412;2022-08-11T00:20:13;19.20;75.80
34891;DHT22;21103;51.358;12.412;2022-08-11T00:22:41;19.20;76.20
34891;DHT22;21103;51.358;12.412;2022-08-11T00:25:18;19.20;75.90
34891;DHT22;21103;51.358;12.412;2022-08-11T00:27:45;19.10;76.80
34891;DHT22;21103;51.358;12.412;2022-08-11T00:30:12;19.10;76.70
34891;DHT22;21103;51.358;12.412;2022-08-11T00:32:40;19.10;76.90
34891;DHT22;21103;51.358;12.412;2022-08-11T00:35:09;19.10;77.40
34891;DHT22;21103;51.358;12.412;2022-08-11T00:37:36;19.10;77.10
34891;DHT22;21103;51.358;12.412;2022-08-11T00:40:07;19.00;76.90
34891;DHT22;21103;51.358;12.412;2022-08-11T00:42:48;19.00;77.00
34891;DHT22;21103;51.358;12.412;2022-08-11T00:45:25;19.00;77.10
34891;DHT22;21103;51.358;12.412;2022-08-11T00:48:14;19.00;77.20
34891;DHT22;21103;51.358;12.412;2022-08-11T00:53:27;18.90;76.80
34891;DHT22;21103;51.358;12.412;2022-08-11T00:56:17;18.90;76.80
34891;DHT22;21103;51.358;12.412;2022-08-11T00:59:22;18.90;77.10
34891;DHT22;21103;51.358;12.412;2022-08-11T01:01:58;18.90;77.80
34891;DHT22;21103;51.358;12.412;2022-08-11T01:04:57;18.90;78.00
34891;DHT22;21103;51.358;12.412;2022-08-11T01:08:06;18.90;78.60
34891;DHT22;21103;51.358;12.412;2022-08-11T01:11:11;18.80;78.40
34891;DHT22;21103;51.358;12.412;2022-08-11T01:27:01;18.60;79.80
34891;DHT22;21103;51.358;12.412;2022-08-11T01:35:26;18.40;80.80
34891;DHT22;21103;51.358;12.412;2022-08-11T01:38:26;18.40;81.10
34891;DHT22;21103;51.358;12.412;2022-08-11T01:41:29;18.40;81.50
34891;DHT22;21103;51.358;12.412;2022-08-11T01:44:37;18.30;81.80
34891;DHT22;21103;51.358;12.412;2022-08-11T01:47:24;18.30;81.50
34891;DHT22;21103;51.358;12.412;2022-08-11T01:50:16;18.30;81.60
34891;DHT22;21103;51.358;12.412;2022-08-11T01:53:07;18.20;81.70
34891;DHT22;21103;51.358;12.412;2022-08-11T01:55:45;18.20;81.50
34891;DHT22;21103;51.358;12.412;2022-08-11T01:58:28;18.10;81.80
34891;DHT22;21103;51.358;12.412;2022-08-11T02:01:15;18.10;82.20
34891;DHT22;21103;51.358;12.412;2022-08-11T02:03:58;18.10;83.20
34891;DHT22;21103;51.358;12.412;2022-08-11T02:06:43;18.00;83.50
34891;DHT22;21103;51.358;12.412;2022-08-11T02:11:59;18.00;84.00
34891;DHT22;21103;51.358;12.412;2022-08-11T02:17:21;18.00;84.60
34891;DHT22;21103;51.358;12.412;2022-08-11T02:19:58;18.00;84.70
34891;DHT22;21103;51.358;12.412;2022-08-11T02:22:56;17.90;84.80
34891;DHT22;21103;51.358;12.412;2022-08-11T02:26:02;17.90;84.90
34891;DHT22;21103;51.358;12.412;2022-08-11T02:37:26;17.90;85.70
34891;DHT22;21103;51.358;12.412;2022-08-11T02:40:13;17.80;85.90
34891;DHT22;21103;51.358;12.412;2022-08-11T02:45:15;17.80;86.20
34891;DHT22;21103;51.358;12.412;2022-08-11T02:51:22;17.80;87.20
34891;DHT22;21103;51.358;12.412;2022-08-11T02:57:14;17.70;87.90
34891;DHT22;21103;51.358;12.412;2022-08-11T03:00:03;17.70;88.30
34891;DHT22;21103;51.358;12.412;2022-08-11T03:08:18;17.70;89.20
34891;DHT22;21103;51.358;12.412;2022-08-11T03:11:29;17.60;89.40
34891;DHT22;21103;51.358;12.412;2022-08-11T03:14:26;17.60;89.60
34891;DHT22;21103;51.358;12.412;2022-08-11T03:17:35;17.60;89.50
34891;DHT22;21103;51.358;12.412;2022-08-11T03:20:19;17.60;89.60
34891;DHT22;21103;51.358;12.412;2022-08-11T03:23:05;17.60;90.10
34891;DHT22;21103;51.358;12.412;2022-08-11T03:25:57;17.60;90.20
34891;DHT22;21103;51.358;12.412;2022-08-11T03:28:52;17.50;90.40
34891;DHT22;21103;51.358;12.412;2022-08-11T03:31:28;17.50;90.50
34891;DHT22;21103;51.358;12.412;2022-08-11T03:34:25;17.50;90.60
34891;DHT22;21103;51.358;12.412;2022-08-11T03:42:41;17.40;91.10
34891;DHT22;21103;51.358;12.412;2022-08-11T03:51:14;17.40;91.60
34891;DHT22;21103;51.358;12.412;2022-08-11T03:54:25;17.40;91.70
34891;DHT22;21103;51.358;12.412;2022-08-11T03:59:44;17.30;92.00
34891;DHT22;21103;51.358;12.412;2022-08-11T04:03:00;17.30;92.00
34891;DHT22;21103;51.358;12.412;2022-08-11T04:08:57;17.30;92.00
34891;DHT22;21103;51.358;12.412;2022-08-11T04:14:35;17.20;92.20
34891;DHT22;21103;51.358;12.412;2022-08-11T04:18:01;17.20;92.30
34891;DHT22;21103;51.358;12.412;2022-08-11T04:23:40;17.20;92.40
34891;DHT22;21103;51.358;12.412;2022-08-11T04:26:24;17.20;92.60
34891;DHT22;21103;51.358;12.412;2022-08-11T04:29:18;17.20;92.70
34891;DHT22;21103;51.358;12.412;2022-08-11T04:32:03;17.30;92.70
34891;DHT22;21103;51.358;12.412;2022-08-11T04:34:44;17.30;92.50
34891;DHT22;21103;51.358;12.412;2022-08-11T04:37:31;17.30;92.60
34891;DHT22;21103;51.358;12.412;2022-08-11T04:40:17;17.30;92.60
34891;DHT22;21103;51.358;12.412;2022-08-11T04:43:30;17.40;92.90
34891;DHT22;21103;51.358;12.412;2022-08-11T04:46:25;17.50;92.90
34891;DHT22;21103;51.358;12.412;2022-08-11T04:49:18;17.50;92.80
34891;DHT22;21103;51.358;12.412;2022-08-11T04:55:36;17.60;92.50
34891;DHT22;21103;51.358;12.412;2022-08-11T05:13:00;17.80;91.60
34891;DHT22;21103;51.358;12.412;2022-08-11T05:15:53;17.90;91.80
34891;DHT22;21103;51.358;12.412;2022-08-11T05:18:49;18.00;91.70
34891;DHT22;21103;51.358;12.412;2022-08-11T05:21:35;18.00;91.60
34891;DHT22;21103;51.358;12.412;2022-08-11T05:24:22;18.10;91.50
34891;DHT22;21103;51.358;12.412;2022-08-11T05:27:13;18.10;91.30
34891;DHT22;21103;51.358;12.412;2022-08-11T05:30:06;18.20;91.00
34891;DHT22;21103;51.358;12.412;2022-08-11T05:33:09;18.30;91.10
34891;DHT22;21103;51.358;12.412;2022-08-11T05:36:10;18.30;91.00
34891;DHT22;21103;51.358;12.412;2022-08-11T05:38:37;18.40;90.80
34891;DHT22;21103;51.358;12.412;2022-08-11T05:41:24;18.50;90.60
34891;DHT22;21103;51.358;12.412;2022-08-11T05:44:09;18.50;90.50
34891;DHT22;21103;51.358;12.412;2022-08-11T05:47:00;18.60;90.50
34891;DHT22;21103;51.358;12.412;2022-08-11T05:49:49;18.60;90.40
34891;DHT22;21103;51.358;12.412;2022-08-11T05:52:33;18.70;90.30
34891;DHT22;21103;51.358;12.412;2022-08-11T05:55:19;18.80;90.20
34891;DHT22;21103;51.358;12.412;2022-08-11T05:58:06;18.90;90.00
34891;DHT22;21103;51.358;12.412;2022-08-11T06:00:43;19.00;89.90
34891;DHT22;21103;51.358;12.412;2022-08-11T06:03:10;19.10;89.80
34891;DHT22;21103;51.358;12.412;2022-08-11T06:05:37;19.20;89.30
34891;DHT22;21103;51.358;12.412;2022-08-11T06:08:04;19.30;89.50
34891;DHT22;21103;51.358;12.412;2022-08-11T06:10:33;19.40;89.10
34891;DHT22;21103;51.358;12.412;2022-08-11T06:13:00;19.50;88.90
34891;DHT22;21103;51.358;12.412;2022-08-11T06:15:27;19.60;88.20
34891;DHT22;21103;51.358;12.412;2022-08-11T06:17:54;19.60;87.50
34891;DHT22;21103;51.358;12.412;2022-08-11T06:20:21;19.80;87.60
34891;DHT22;21103;51.358;12.412;2022-08-11T06:22:55;19.80;87.10
34891;DHT22;21103;51.358;12.412;2022-08-11T06:25:22;19.90;87.20
34891;DHT22;21103;51.358;12.412;2022-08-11T06:27:54;20.10;86.50
34891;DHT22;21103;51.358;12.412;2022-08-11T06:33:02;20.30;85.80
34891;DHT22;21103;51.358;12.412;2022-08-11T06:35:49;20.40;85.20
34891;DHT22;21103;51.358;12.412;2022-08-11T06:38:27;20.50;83.70
34891;DHT22;21103;51.358;12.412;2022-08-11T06:41:03;20.60;84.00
34891;DHT22;21103;51.358;12.412;2022-08-11T06:43:53;20.80;83.40
34891;DHT22;21103;51.358;12.412;2022-08-11T06:46:29;20.90;82.90
34891;DHT22;21103;51.358;12.412;2022-08-11T06:48:55;21.00;82.70
34891;DHT22;21103;51.358;12.412;2022-08-11T06:51:22;21.10;82.60
34891;DHT22;21103;51.358;12.412;2022-08-11T06:53:51;21.20;82.60
34891;DHT22;21103;51.358;12.412;2022-08-11T06:56:28;21.30;81.50
34891;DHT22;21103;51.358;12.412;2022-08-11T06:59:15;21.50;80.90
34891;DHT22;21103;51.358;12.412;2022-08-11T07:04:44;21.80;81.10
34891;DHT22;21103;51.358;12.412;2022-08-11T07:07:44;21.90;80.90
34891;DHT22;21103;51.358;12.412;2022-08-11T07:11:00;22.00;80.00
34891;DHT22;21103;51.358;12.412;2022-08-11T07:13:50;22.10;79.70
34891;DHT22;21103;51.358;12.412;2022-08-11T07:16:38;22.20;78.90
34891;DHT22;21103;51.358;12.412;2022-08-11T07:19:06;22.40;78.70
34891;DHT22;21103;51.358;12.412;2022-08-11T07:21:51;22.50;78.00
34891;DHT22;21103;51.358;12.412;2022-08-11T07:24:43;22.60;77.00
34891;DHT22;21103;51.358;12.412;2022-08-11T07:27:49;22.80;75.90
34891;DHT22;21103;51.358;12.412;2022-08-11T07:30:38;23.00;74.80
34891;DHT22;21103;51.358;12.412;2022-08-11T07:33:05;23.20;74.70
34891;DHT22;21103;51.358;12.412;2022-08-11T07:35:41;23.30;73.60
34891;DHT22;21103;51.358;12.412;2022-08-11T07:38:13;23.50;74.10
34891;DHT22;21103;51.358;12.412;2022-08-11T07:40:41;23.60;72.70
34891;DHT22;21103;51.358;12.412;2022-08-11T07:43:07;23.80;72.20
34891;DHT22;21103;51.358;12.412;2022-08-11T07:45:34;24.00;73.40
34891;DHT22;21103;51.358;12.412;2022-08-11T07:48:19;24.20;70.90
34891;DHT22;21103;51.358;12.412;2022-08-11T07:51:03;24.40;71.00
34891;DHT22;21103;51.358;12.412;2022-08-11T07:53:50;24.60;70.20
34891;DHT22;21103;51.358;12.412;2022-08-11T07:56:17;24.80;69.80
34891;DHT22;21103;51.358;12.412;2022-08-11T07:58:44;25.00;68.40
34891;DHT22;21103;51.358;12.412;2022-08-11T08:01:29;25.10;67.50
34891;DHT22;21103;51.358;12.412;2022-08-11T08:04:16;25.20;67.50
34891;DHT22;21103;51.358;12.412;2022-08-11T08:07:03;25.30;68.20
34891;DHT22;21103;51.358;12.412;2022-08-11T08:09:48;25.50;68.50
34891;DHT22;21103;51.358;12.412;2022-08-11T08:12:33;25.70;67.30
34891;DHT22;21103;51.358;12.412;2022-08-11T08:15:20;25.80;66.10
34891;DHT22;21103;51.358;12.412;2022-08-11T08:18:06;26.00;66.50
34891;DHT22;21103;51.358;12.412;2022-08-11T08:20:47;26.30;68.00
34891;DHT22;21103;51.358;12.412;2022-08-11T08:23:14;26.50;64.70
34891;DHT22;21103;51.358;12.412;2022-08-11T08:25:42;26.60;63.90
34891;DHT22;21103;51.358;12.412;2022-08-11T08:28:11;26.80;62.30
34891;DHT22;21103;51.358;12.412;2022-08-11T08:30:39;27.00;63.80
34891;DHT22;21103;51.358;12.412;2022-08-11T08:33:13;27.20;60.80
34891;DHT22;21103;51.358;12.412;2022-08-11T08:35:41;27.30;63.70
34891;DHT22;21103;51.358;12.412;2022-08-11T08:38:08;27.40;62.70
34891;DHT22;21103;51.358;12.412;2022-08-11T08:40:34;27.50;61.10
34891;DHT22;21103;51.358;12.412;2022-08-11T08:43:05;27.50;60.00
34891;DHT22;21103;51.358;12.412;2022-08-11T08:45:33;27.50;59.90
34891;DHT22;21103;51.358;12.412;2022-08-11T08:48:10;27.60;59.80
34891;DHT22;21103;51.358;12.412;2022-08-11T08:50:41;27.70;59.50
34891;DHT22;21103;51.358;12.412;2022-08-11T08:53:29;27.70;59.40
34891;DHT22;21103;51.358;12.412;2022-08-11T08:55:59;27.80;60.30
34891;DHT22;21103;51.358;12.412;2022-08-11T08:58:25;27.90;60.30
34891;DHT22;21103;51.358;12.412;2022-08-11T09:00:53;28.10;60.30
34891;DHT22;21103;51.358;12.412;2022-08-11T09:03:21;28.30;60.10
34891;DHT22;21103;51.358;12.412;2022-08-11T09:05:47;28.40;57.80
34891;DHT22;21103;51.358;12.412;2022-08-11T09:08:16;28.60;58.40
34891;DHT22;21103;51.358;12.412;2022-08-11T09:10:45;28.80;58.00
34891;DHT22;21103;51.358;12.412;2022-08-11T09:13:11;29.00;60.80
34891;DHT22;21103;51.358;12.412;2022-08-11T09:15:36;29.10;55.50
34891;DHT22;21103;51.358;12.412;2022-08-11T09:18:03;29.20;56.40
34891;DHT22;21103;51.358;12.412;2022-08-11T09:20:35;29.30;55.20
34891;DHT22;21103;51.358;12.412;2022-08-11T09:23:04;29.40;55.00
34891;DHT22;21103;51.358;12.412;2022-08-11T09:25:56;29.50;54.20
34891;DHT22;21103;51.358;12.412;2022-08-11T09:28:46;29.60;55.60
34891;DHT22;21103;51.358;12.412;2022-08-11T09:31:13;29.60;55.00
34891;DHT22;21103;51.358;12.412;2022-08-11T09:33:40;29.60;54.10
34891;DHT22;21103;51.358;12.412;2022-08-11T09:36:07;29.60;54.30
34891;DHT22;21103;51.358;12.412;2022-08-11T09:38:52;29.70;56.50
34891;DHT22;21103;51.358;12.412;2022-08-11T09:41:38;29.70;56.20
34891;DHT22;21103;51.358;12.412;2022-08-11T09:44:05;29.90;54.70
34891;DHT22;21103;51.358;12.412;2022-08-11T09:46:51;29.90;53.90
34891;DHT22;21103;51.358;12.412;2022-08-11T09:49:19;30.00;52.30
34891;DHT22;21103;51.358;12.412;2022-08-11T09:51:46;30.00;52.10
34891;DHT22;21103;51.358;12.412;2022-08-11T09:54:14;30.00;51.90
34891;DHT22;21103;51.358;12.412;2022-08-11T09:56:42;30.00;51.40
34891;DHT22;21103;51.358;12.412;2022-08-11T09:59:26;30.00;54.80
34891;DHT22;21103;51.358;12.412;2022-08-11T10:01:57;30.10;52.50
34891;DHT22;21103;51.358;12.412;2022-08-11T10:04:27;30.10;52.10
34891;DHT22;21103;51.358;12.412;2022-08-11T10:07:00;30.10;52.20
34891;DHT22;21103;51.358;12.412;2022-08-11T10:10:00;30.20;51.20
34891;DHT22;21103;51.358;12.412;2022-08-11T10:12:36;30.40;51.40
34891;DHT22;21103;51.358;12.412;2022-08-11T10:15:09;30.50;53.00
34891;DHT22;21103;51.358;12.412;2022-08-11T10:17:57;30.70;52.20
34891;DHT22;21103;51.358;12.412;2022-08-11T10:20:41;30.90;51.40
34891;DHT22;21103;51.358;12.412;2022-08-11T10:23:10;30.90;50.50
34891;DHT22;21103;51.358;12.412;2022-08-11T10:25:56;31.00;50.50
34891;DHT22;21103;51.358;12.412;2022-08-11T10:28:40;31.00;49.40
34891;DHT22;21103;51.358;12.412;2022-08-11T10:31:07;30.90;50.30
34891;DHT22;21103;51.358;12.412;2022-08-11T10:33:52;30.80;49.00
34891;DHT22;21103;51.358;12.412;2022-08-11T10:36:39;30.80;49.40
34891;DHT22;21103;51.358;12.412;2022-08-11T10:39:15;30.90;50.90
34891;DHT22;21103;51.358;12.412;2022-08-11T10:41:46;30.80;50.20
34891;DHT22;21103;51.358;12.412;2022-08-11T10:44:36;30.70;50.30
34891;DHT22;21103;51.358;12.412;2022-08-11T10:47:04;30.60;50.30
34891;DHT22;21103;51.358;12.412;2022-08-11T10:49:48;30.60;52.60
34891;DHT22;21103;51.358;12.412;2022-08-11T10:52:36;30.70;51.50
34891;DHT22;21103;51.358;12.412;2022-08-11T10:55:22;30.90;49.80
34891;DHT22;21103;51.358;12.412;2022-08-11T10:58:08;31.00;53.90
34891;DHT22;21103;51.358;12.412;2022-08-11T11:00:53;31.20;49.50
34891;DHT22;21103;51.358;12.412;2022-08-11T11:03:24;31.20;48.90
34891;DHT22;21103;51.358;12.412;2022-08-11T11:05:51;31.20;48.60
34891;DHT22;21103;51.358;12.412;2022-08-11T11:08:19;31.30;48.60
34891;DHT22;21103;51.358;12.412;2022-08-11T11:11:06;31.20;48.20
34891;DHT22;21103;51.358;12.412;2022-08-11T11:13:35;31.20;50.20
34891;DHT22;21103;51.358;12.412;2022-08-11T11:16:21;31.10;47.10
34891;DHT22;21103;51.358;12.412;2022-08-11T11:19:08;31.20;49.50
34891;DHT22;21103;51.358;12.412;2022-08-11T11:21:35;31.10;48.30
34891;DHT22;21103;51.358;12.412;2022-08-11T11:27:37;31.10;48.80
34891;DHT22;21103;51.358;12.412;2022-08-11T11:30:10;31.10;47.10
34891;DHT22;21103;51.358;12.412;2022-08-11T11:33:01;31.20;48.20
34891;DHT22;21103;51.358;12.412;2022-08-11T11:38:05;31.50;47.20
34891;DHT22;21103;51.358;12.412;2022-08-11T11:40:34;31.70;49.20
34891;DHT22;21103;51.358;12.412;2022-08-11T11:43:01;31.60;49.60
34891;DHT22;21103;51.358;12.412;2022-08-11T11:45:28;31.60;47.40
34891;DHT22;21103;51.358;12.412;2022-08-11T11:47:55;31.70;48.50
34891;DHT22;21103;51.358;12.412;2022-08-11T11:50:28;31.80;45.70
34891;DHT22;21103;51.358;12.412;2022-08-11T11:52:54;31.40;45.70
34891;DHT22;21103;51.358;12.412;2022-08-11T11:55:22;31.40;46.70
34891;DHT22;21103;51.358;12.412;2022-08-11T11:57:49;31.20;45.80
34891;DHT22;21103;51.358;12.412;2022-08-11T12:00:33;31.20;47.00
34891;DHT22;21103;51.358;12.412;2022-08-11T12:03:18;31.40;49.80
34891;DHT22;21103;51.358;12.412;2022-08-11T12:05:44;31.70;49.30
34891;DHT22;21103;51.358;12.412;2022-08-11T12:08:11;31.90;46.00
34891;DHT22;21103;51.358;12.412;2022-08-11T12:10:44;32.00;45.90
34891;DHT22;21103;51.358;12.412;2022-08-11T12:13:11;32.30;46.00
34891;DHT22;21103;51.358;12.412;2022-08-11T12:15:57;32.50;45.50
34891;DHT22;21103;51.358;12.412;2022-08-11T12:18:25;32.50;45.70
34891;DHT22;21103;51.358;12.412;2022-08-11T12:20:51;32.60;45.50
34891;DHT22;21103;51.358;12.412;2022-08-11T12:23:16;32.70;48.20
34891;DHT22;21103;51.358;12.412;2022-08-11T12:26:01;32.80;45.30
34891;DHT22;21103;51.358;12.412;2022-08-11T12:28:46;32.70;47.50
34891;DHT22;21103;51.358;12.412;2022-08-11T12:31:12;32.70;47.80
34891;DHT22;21103;51.358;12.412;2022-08-11T12:33:38;32.80;45.30
34891;DHT22;21103;51.358;12.412;2022-08-11T12:36:09;32.80;45.40
34891;DHT22;21103;51.358;12.412;2022-08-11T12:38:43;32.70;46.50
34891;DHT22;21103;51.358;12.412;2022-08-11T12:41:11;32.70;47.30
34891;DHT22;21103;51.358;12.412;2022-08-11T12:43:58;32.70;46.20
34891;DHT22;21103;51.358;12.412;2022-08-11T12:46:44;32.80;45.90
34891;DHT22;21103;51.358;12.412;2022-08-11T12:49:16;33.00;46.30
34891;DHT22;21103;51.358;12.412;2022-08-11T12:52:09;33.00;47.70
34891;DHT22;21103;51.358;12.412;2022-08-11T12:57:12;33.10;44.50
34891;DHT22;21103;51.358;12.412;2022-08-11T12:59:59;32.90;44.40
34891;DHT22;21103;51.358;12.412;2022-08-11T13:02:45;32.50;43.50
34891;DHT22;21103;51.358;12.412;2022-08-11T13:05:30;32.40;44.90
34891;DHT22;21103;51.358;12.412;2022-08-11T13:08:00;32.60;47.80
34891;DHT22;21103;51.358;12.412;2022-08-11T13:10:28;32.70;44.50
34891;DHT22;21103;51.358;12.412;2022-08-11T13:13:13;32.70;44.00
34891;DHT22;21103;51.358;12.412;2022-08-11T13:15:40;32.70;44.00
34891;DHT22;21103;51.358;12.412;2022-08-11T13:18:06;32.60;44.50
34891;DHT22;21103;51.358;12.412;2022-08-11T13:20:33;32.50;44.60
34891;DHT22;21103;51.358;12.412;2022-08-11T13:22:59;32.50;44.50
34891;DHT22;21103;51.358;12.412;2022-08-11T13:25:27;32.60;46.40
34891;DHT22;21103;51.358;12.412;2022-08-11T13:27:57;32.80;43.70
34891;DHT22;21103;51.358;12.412;2022-08-11T13:30:29;32.90;44.40
34891;DHT22;21103;51.358;12.412;2022-08-11T13:33:14;33.00;44.10
34891;DHT22;21103;51.358;12.412;2022-08-11T13:35:49;33.00;44.80
34891;DHT22;21103;51.358;12.412;2022-08-11T13:38:15;33.20;44.30
34891;DHT22;21103;51.358;12.412;2022-08-11T13:40:43;33.30;43.70
34891;DHT22;21103;51.358;12.412;2022-08-11T13:43:09;33.30;43.10
34891;DHT22;21103;51.358;12.412;2022-08-11T13:45:35;33.40;42.80
34891;DHT22;21103;51.358;12.412;2022-08-11T13:48:03;33.50;43.90
34891;DHT22;21103;51.358;12.412;2022-08-11T13:50:31;33.40;44.30
34891;DHT22;21103;51.358;12.412;2022-08-11T13:53:21;33.50;43.00
34891;DHT22;21103;51.358;12.412;2022-08-11T13:55:47;33.40;44.00
34891;DHT22;21103;51.358;12.412;2022-08-11T13:58:14;33.40;44.00
34891;DHT22;21103;51.358;12.412;2022-08-11T14:00:43;33.40;43.90
34891;DHT22;21103;51.358;12.412;2022-08-11T14:03:11;33.40;44.60
34891;DHT22;21103;51.358;12.412;2022-08-11T14:05:45;33.50;43.30
34891;DHT22;21103;51.358;12.412;2022-08-11T14:08:23;33.50;44.20
34891;DHT22;21103;51.358;12.412;2022-08-11T14:10:50;33.50;45.70
34891;DHT22;21103;51.358;12.412;2022-08-11T14:13:39;33.50;44.60
34891;DHT22;21103;51.358;12.412;2022-08-11T14:16:14;33.60;43.30
34891;DHT22;21103;51.358;12.412;2022-08-11T14:18:45;33.60;43.80
34891;DHT22;21103;51.358;12.412;2022-08-11T14:21:14;33.60;44.10
34891;DHT22;21103;51.358;12.412;2022-08-11T14:23:59;33.60;45.00
34891;DHT22;21103;51.358;12.412;2022-08-11T14:26:27;33.50;44.20
34891;DHT22;21103;51.358;12.412;2022-08-11T14:29:05;33.50;45.10
34891;DHT22;21103;51.358;12.412;2022-08-11T14:31:34;33.30;43.40
34891;DHT22;21103;51.358;12.412;2022-08-11T14:34:05;33.20;44.30
34891;DHT22;21103;51.358;12.412;2022-08-11T14:36:34;33.20;43.00
34891;DHT22;21103;51.358;12.412;2022-08-11T14:39:08;33.20;43.00
34891;DHT22;21103;51.358;12.412;2022-08-11T14:41:37;33.20;43.10
34891;DHT22;21103;51.358;12.412;2022-08-11T14:44:23;32.90;44.30
34891;DHT22;21103;51.358;12.412;2022-08-11T14:47:08;33.00;44.60
34891;DHT22;21103;51.358;12.412;2022-08-11T14:49:39;33.10;43.20
34891;DHT22;21103;51.358;12.412;2022-08-11T14:52:13;33.10;43.80
34891;DHT22;21103;51.358;12.412;2022-08-11T14:54:42;33.10;43.70
34891;DHT22;21103;51.358;12.412;2022-08-11T14:57:28;33.00;43.10
34891;DHT22;21103;51.358;12.412;2022-08-11T14:59:59;33.10;43.70
34891;DHT22;21103;51.358;12.412;2022-08-11T15:02:25;33.10;43.50
34891;DHT22;21103;51.358;12.412;2022-08-11T15:05:10;33.20;44.00
34891;DHT22;21103;51.358;12.412;2022-08-11T15:07:36;33.10;43.00
34891;DHT22;21103;51.358;12.412;2022-08-11T15:10:05;33.10;44.20
34891;DHT22;21103;51.358;12.412;2022-08-11T15:12:32;33.10;44.40
34891;DHT22;21103;51.358;12.412;2022-08-11T15:15:00;33.10;44.00
34891;DHT22;21103;51.358;12.412;2022-08-11T15:17:45;33.10;43.00
34891;DHT22;21103;51.358;12.412;2022-08-11T15:20:16;32.80;43.80
34891;DHT22;21103;51.358;12.412;2022-08-11T15:23:01;32.80;43.40
34891;DHT22;21103;51.358;12.412;2022-08-11T15:25:50;32.60;43.40
34891;DHT22;21103;51.358;12.412;2022-08-11T15:28:17;32.50;43.50
34891;DHT22;21103;51.358;12.412;2022-08-11T15:31:03;32.50;43.60
34891;DHT22;21103;51.358;12.412;2022-08-11T15:33:50;32.50;44.30
34891;DHT22;21103;51.358;12.412;2022-08-11T15:36:36;32.50;44.70
34891;DHT22;21103;51.358;12.412;2022-08-11T15:39:23;32.50;44.00
34891;DHT22;21103;51.358;12.412;2022-08-11T15:42:03;32.40;45.00
34891;DHT22;21103;51.358;12.412;2022-08-11T15:44:55;32.40;44.80
34891;DHT22;21103;51.358;12.412;2022-08-11T15:47:44;32.40;44.80
34891;DHT22;21103;51.358;12.412;2022-08-11T15:50:15;32.50;44.50
34891;DHT22;21103;51.358;12.412;2022-08-11T15:52:52;32.40;43.80
34891;DHT22;21103;51.358;12.412;2022-08-11T15:55:18;32.40;44.40
34891;DHT22;21103;51.358;12.412;2022-08-11T15:57:48;32.20;44.60
34891;DHT22;21103;51.358;12.412;2022-08-11T16:00:37;32.20;44.30
34891;DHT22;21103;51.358;12.412;2022-08-11T16:03:24;32.10;44.20
34891;DHT22;21103;51.358;12.412;2022-08-11T16:06:11;32.00;43.90
34891;DHT22;21103;51.358;12.412;2022-08-11T16:08:39;31.90;43.40
34891;DHT22;21103;51.358;12.412;2022-08-11T16:11:06;31.90;44.60
34891;DHT22;21103;51.358;12.412;2022-08-11T16:13:35;31.80;44.00
34891;DHT22;21103;51.358;12.412;2022-08-11T16:16:02;31.70;43.40
34891;DHT22;21103;51.358;12.412;2022-08-11T16:18:52;31.40;43.70
34891;DHT22;21103;51.358;12.412;2022-08-11T16:21:23;31.40;44.60
34891;DHT22;21103;51.358;12.412;2022-08-11T16:23:52;31.30;43.70
34891;DHT22;21103;51.358;12.412;2022-08-11T16:26:20;31.20;43.70
34891;DHT22;21103;51.358;12.412;2022-08-11T16:28:49;31.10;44.70
34891;DHT22;21103;51.358;12.412;2022-08-11T16:31:16;31.10;44.90
34891;DHT22;21103;51.358;12.412;2022-08-11T16:33:44;31.10;44.80
34891;DHT22;21103;51.358;12.412;2022-08-11T16:36:10;31.00;44.20
34891;DHT22;21103;51.358;12.412;2022-08-11T16:38:57;31.00;44.60
34891;DHT22;21103;51.358;12.412;2022-08-11T16:41:26;31.00;44.20
34891;DHT22;21103;51.358;12.412;2022-08-11T16:44:14;31.10;44.10
34891;DHT22;21103;51.358;12.412;2022-08-11T16:47:00;31.00;43.40
34891;DHT22;21103;51.358;12.412;2022-08-11T16:49:31;30.90;43.70
34891;DHT22;21103;51.358;12.412;2022-08-11T16:51:57;30.80;44.10
34891;DHT22;21103;51.358;12.412;2022-08-11T16:54:31;30.80;43.60
34891;DHT22;21103;51.358;12.412;2022-08-11T16:57:01;30.60;43.70
34891;DHT22;21103;51.358;12.412;2022-08-11T16:59:47;30.50;43.10
34891;DHT22;21103;51.358;12.412;2022-08-11T17:02:16;30.40;43.70
34891;DHT22;21103;51.358;12.412;2022-08-11T17:05:10;30.40;43.30
34891;DHT22;21103;51.358;12.412;2022-08-11T17:07:57;30.40;43.90
34891;DHT22;21103;51.358;12.412;2022-08-11T17:10:48;30.50;43.30
34891;DHT22;21103;51.358;12.412;2022-08-11T17:13:51;30.50;43.10
34891;DHT22;21103;51.358;12.412;2022-08-11T17:16:27;30.50;43.10
34891;DHT22;21103;51.358;12.412;2022-08-11T17:19:02;30.60;42.50
34891;DHT22;21103;51.358;12.412;2022-08-11T17:21:37;30.60;42.80
34891;DHT22;21103;51.358;12.412;2022-08-11T17:24:25;30.50;42.50
34891;DHT22;21103;51.358;12.412;2022-08-11T17:26:53;30.40;42.80
34891;DHT22;21103;51.358;12.412;2022-08-11T17:29:32;30.30;43.00
34891;DHT22;21103;51.358;12.412;2022-08-11T17:32:04;30.20;42.80
34891;DHT22;21103;51.358;12.412;2022-08-11T17:34:52;30.00;42.90
34891;DHT22;21103;51.358;12.412;2022-08-11T17:37:39;29.90;43.10
34891;DHT22;21103;51.358;12.412;2022-08-11T17:40:08;29.70;43.30
34891;DHT22;21103;51.358;12.412;2022-08-11T17:42:35;29.60;42.90
34891;DHT22;21103;51.358;12.412;2022-08-11T17:45:22;29.60;43.10
34891;DHT22;21103;51.358;12.412;2022-08-11T17:48:08;29.50;43.20
34891;DHT22;21103;51.358;12.412;2022-08-11T17:53:20;29.40;42.40
34891;DHT22;21103;51.358;12.412;2022-08-11T17:56:05;29.30;42.50
34891;DHT22;21103;51.358;12.412;2022-08-11T17:58:51;29.30;42.10
34891;DHT22;21103;51.358;12.412;2022-08-11T18:01:38;29.20;42.00
34891;DHT22;21103;51.358;12.412;2022-08-11T18:04:06;29.10;42.80
34891;DHT22;21103;51.358;12.412;2022-08-11T18:06:33;29.10;42.70
34891;DHT22;21103;51.358;12.412;2022-08-11T18:09:02;28.90;42.50
34891;DHT22;21103;51.358;12.412;2022-08-11T18:11:48;28.90;43.30